ADDS TAF Board (Experimental) INFO Settings
IDs: Format: Expanded Condensed

KSLC - Salt Lake City Intl, UT, US

Issued at 1737 UTC 03 Jul 2015
Updated at: 2019 UTC 03 Jul 2015
Time1953Z 03/21Z 03/22Z 03/23Z 04/00Z 04/01Z 04/02Z 04/03Z 04/04Z 04/05Z 04/06Z 04/07Z 04/08Z 04/09Z
Type OBS PRVL PRVL PRVL PRVL PRVL PRVL PRVL PRVL PRVL PRVL PRVL PRVL PRVL
VIS 10 >6 >6 >6 >6 >6 >6 >6 >6 >6 >6 >6 >6 >6
CIG -- -- -- -- -- -- -- -- -- -- -- -- -- --
Cover SCT SCT SCT SCT SCT SCT SCT SCT SCT SCT SCT SCT SCT SCT
FltCat VFR VFR VFR VFR VFR VFR VFR VFR VFR VFR VFR VFR VFR VFR
WX -- -- -- -- -- -- -- -- -- -- -- -- -- --
WDir VRB 320 320 320 320 320 320 170 170 170 170 170 170 170
WSpd 6 6 6 6 6 6 6 6 6 6 6 6 6 6
WGst -- -- -- -- -- -- -- -- -- -- -- -- -- --
R14/32
XWnd VRB -1 -1 -1 -1 -1 -1 -2 -2 -2 -2 -2 -2 -2
HWnd VRB -6 -6 -6 -6 -6 -6 6 6 6 6 6 6 6
R16/34
XWnd VRB -3 -3 -3 -3 -3 -3 1 1 1 1 1 1 1
HWnd VRB -5 -5 -5 -5 -5 -5 6 6 6 6 6 6 6
R17/35
XWnd VRB -4 -4 -4 -4 -4 -4 1 1 1 1 1 1 1
HWnd VRB -5 -5 -5 -5 -5 -5 6 6 6 6 6 6 6
RHB/18
XWnd VRB 4 4 4 4 4 4 -1 -1 -1 -1 -1 -1 -1
HWnd VRB 5 5 5 5 5 5 -6 -6 -6 -6 -6 -6 -6

NOTE: TEMPO conditions in [brackets]. Keep in mind TEMPO conditions might be better (lower impact) than prevailing conditions.

Raw TAF
KSLC 031737Z 0318/0424 32006KT P6SM SCT250
  FM040300 17006KT P6SM SCT250
  FM041900 33006KT P6SM SCT100 BKN250


Raw METAR
KSLC 031953Z VRB06KT 10SM FEW090 SCT230 36/06 A2998 RMK AO2 SLP084 T03610056
KSLC 031853Z 32007KT 300V360 10SM FEW090 FEW170 SCT230 35/07 A3000 RMK AO2 SLP090 T03500072
KSLC 031753Z 00000KT 10SM FEW090 FEW160 SCT230 34/07 A3002 RMK AO2 SLP096 T03390072 10339 20233 57003

METAR Board
Radar Display
Forecast Discussion

TAF Board Legend

Potential Impact
Threat None Slight Moderate High
Visibility (sm) ≥5.1 5.1>X≥3 3>X≥1 <1
Ceiling (100 ft) ≥30.1 30.1>X≥10 10>X≥5 <5
Wind Speed (kt) <10 10≤X<20 20≤X<30 ≥30
Wind Gust (kt) <15 15≤X<25 25≤X<35 ≥35
Weather No Wx Reported VCTS,-TS,-FZRA,SN TS,FZRA +TS,+FZRA,+SN